sensor_id;sensor_type;location;lat;lon;timestamp;pressure;altitude;pressure_sealevel;temperature;humidity
43878;BME280;29815;48.184;11.268;2023-04-24T00:02:01;94659.19;;;9.12;100.00
43878;BME280;29815;48.184;11.268;2023-04-24T00:04:31;94658.09;;;9.13;100.00
43878;BME280;29815;48.184;11.268;2023-04-24T00:07:01;94658.38;;;9.11;100.00
43878;BME280;29815;48.184;11.268;2023-04-24T00:09:31;94658.09;;;9.13;100.00
43878;BME280;29815;48.184;11.268;2023-04-24T00:12:00;94662.72;;;9.07;100.00
43878;BME280;29815;48.184;11.268;2023-04-24T00:14:33;94658.94;;;9.08;100.00
43878;BME280;29815;48.184;11.268;2023-04-24T00:17:03;94657.09;;;9.04;100.00
43878;BME280;29815;48.184;11.268;2023-04-24T00:19:32;94655.97;;;9.10;100.00
43878;BME280;29815;48.184;11.268;2023-04-24T00:22:02;94663.22;;;9.09;100.00
43878;BME280;29815;48.184;11.268;2023-04-24T00:24:32;94662.19;;;9.05;100.00
43878;BME280;29815;48.184;11.268;2023-04-24T00:27:01;94655.75;;;9.06;100.00
43878;BME280;29815;48.184;11.268;2023-04-24T00:29:32;94659.50;;;9.05;100.00
43878;BME280;29815;48.184;11.268;2023-04-24T00:32:02;94653.28;;;9.10;100.00
43878;BME280;29815;48.184;11.268;2023-04-24T00:34:33;94665.69;;;9.06;100.00
43878;BME280;29815;48.184;11.268;2023-04-24T00:37:03;94666.47;;;9.06;100.00
43878;BME280;29815;48.184;11.268;2023-04-24T00:39:33;94670.53;;;9.04;100.00
43878;BME280;29815;48.184;11.268;2023-04-24T00:42:03;94659.78;;;9.04;100.00
43878;BME280;29815;48.184;11.268;2023-04-24T00:44:35;94657.97;;;8.99;100.00
43878;BME280;29815;48.184;11.268;2023-04-24T00:47:05;94660.94;;;8.98;100.00
43878;BME280;29815;48.184;11.268;2023-04-24T00:49:34;94659.09;;;8.93;100.00
43878;BME280;29815;48.184;11.268;2023-04-24T00:52:04;94656.41;;;8.93;100.00
43878;BME280;29815;48.184;11.268;2023-04-24T00:54:36;94653.00;;;8.82;100.00
43878;BME280;29815;48.184;11.268;2023-04-24T00:57:06;94653.81;;;8.78;100.00
43878;BME280;29815;48.184;11.268;2023-04-24T00:59:38;94656.28;;;8.74;100.00
43878;BME280;29815;48.184;11.268;2023-04-24T01:02:10;94654.31;;;8.85;100.00
43878;BME280;29815;48.184;11.268;2023-04-24T01:04:40;94654.88;;;8.82;100.00
43878;BME280;29815;48.184;11.268;2023-04-24T01:07:10;94655.25;;;8.70;100.00
43878;BME280;29815;48.184;11.268;2023-04-24T01:09:40;94651.25;;;8.68;100.00
43878;BME280;29815;48.184;11.268;2023-04-24T01:12:11;94651.28;;;8.63;100.00
43878;BME280;29815;48.184;11.268;2023-04-24T01:14:42;94647.22;;;8.65;100.00
43878;BME280;29815;48.184;11.268;2023-04-24T01:17:12;94647.72;;;8.72;100.00
43878;BME280;29815;48.184;11.268;2023-04-24T01:19:41;94639.72;;;8.67;100.00
43878;BME280;29815;48.184;11.268;2023-04-24T01:22:15;94637.56;;;8.69;100.00
43878;BME280;29815;48.184;11.268;2023-04-24T01:24:45;94634.94;;;8.59;100.00
43878;BME280;29815;48.184;11.268;2023-04-24T01:27:15;94634.41;;;8.57;100.00
43878;BME280;29815;48.184;11.268;2023-04-24T01:29:46;94634.41;;;8.57;100.00
43878;BME280;29815;48.184;11.268;2023-04-24T01:32:17;94643.28;;;8.53;100.00
43878;BME280;29815;48.184;11.268;2023-04-24T01:34:48;94634.41;;;8.57;100.00
43878;BME280;29815;48.184;11.268;2023-04-24T01:37:19;94631.75;;;8.52;100.00
43878;BME280;29815;48.184;11.268;2023-04-24T01:39:50;94641.13;;;8.55;100.00
43878;BME280;29815;48.184;11.268;2023-04-24T01:42:20;94635.00;;;8.49;100.00
43878;BME280;29815;48.184;11.268;2023-04-24T01:44:49;94631.03;;;8.41;100.00
43878;BME280;29815;48.184;11.268;2023-04-24T01:47:19;94626.75;;;8.40;100.00
43878;BME280;29815;48.184;11.268;2023-04-24T01:49:51;94639.09;;;8.41;100.00
43878;BME280;29815;48.184;11.268;2023-04-24T01:52:22;94638.00;;;8.42;100.00
43878;BME280;29815;48.184;11.268;2023-04-24T01:54:52;94635.34;;;8.42;100.00
43878;BME280;29815;48.184;11.268;2023-04-24T01:57:23;94638.28;;;8.41;100.00
43878;BME280;29815;48.184;11.268;2023-04-24T01:59:53;94644.19;;;8.38;100.00
43878;BME280;29815;48.184;11.268;2023-04-24T02:02:23;94644.44;;;8.41;100.00
43878;BME280;29815;48.184;11.268;2023-04-24T02:04:57;94638.81;;;8.43;100.00
43878;BME280;29815;48.184;11.268;2023-04-24T02:07:29;94635.34;;;8.42;100.00
43878;BME280;29815;48.184;11.268;2023-04-24T02:09:59;94635.34;;;8.42;100.00
43878;BME280;29815;48.184;11.268;2023-04-24T02:12:29;94635.34;;;8.37;100.00
43878;BME280;29815;48.184;11.268;2023-04-24T02:14:58;94640.44;;;8.39;100.00
43878;BME280;29815;48.184;11.268;2023-04-24T02:17:29;94638.81;;;8.43;100.00
43878;BME280;29815;48.184;11.268;2023-04-24T02:19:59;94640.41;;;8.44;100.00
43878;BME280;29815;48.184;11.268;2023-04-24T02:22:30;94643.34;;;8.47;100.00
43878;BME280;29815;48.184;11.268;2023-04-24T02:25:02;94637.19;;;8.47;100.00
43878;BME280;29815;48.184;11.268;2023-04-24T02:27:33;94636.94;;;8.43;100.00
43878;BME280;29815;48.184;11.268;2023-04-24T02:30:07;94642.47;;;8.52;100.00
43878;BME280;29815;48.184;11.268;2023-04-24T02:32:37;94633.63;;;8.52;100.00
43878;BME280;29815;48.184;11.268;2023-04-24T02:35:10;94643.63;;;8.46;100.00
43878;BME280;29815;48.184;11.268;2023-04-24T02:37:41;94634.50;;;8.47;100.00
43878;BME280;29815;48.184;11.268;2023-04-24T02:40:13;94638.28;;;8.41;100.00
43878;BME280;29815;48.184;11.268;2023-04-24T02:42:42;94637.72;;;8.44;100.00
43878;BME280;29815;48.184;11.268;2023-04-24T02:45:12;94647.38;;;8.45;100.00
43878;BME280;29815;48.184;11.268;2023-04-24T02:47:42;94646.31;;;8.46;100.00
43878;BME280;29815;48.184;11.268;2023-04-24T02:50:13;94647.66;;;8.43;100.00
43878;BME280;29815;48.184;11.268;2023-04-24T02:52:43;94642.47;;;8.52;100.00
43878;BME280;29815;48.184;11.268;2023-04-24T02:55:13;94648.94;;;8.51;100.00
43878;BME280;29815;48.184;11.268;2023-04-24T02:57:43;94648.94;;;8.51;100.00
43878;BME280;29815;48.184;11.268;2023-04-24T03:00:13;94645.69;;;8.54;100.00
43878;BME280;29815;48.184;11.268;2023-04-24T03:02:43;94645.22;;;8.47;100.00
43878;BME280;29815;48.184;11.268;2023-04-24T03:05:12;94646.59;;;8.44;100.00
43878;BME280;29815;48.184;11.268;2023-04-24T03:07:43;94645.50;;;8.45;100.00
43878;BME280;29815;48.184;11.268;2023-04-24T03:10:13;94637.25;;;8.37;100.00
43878;BME280;29815;48.184;11.268;2023-04-24T03:12:43;94637.22;;;8.32;100.00
43878;BME280;29815;48.184;11.268;2023-04-24T03:15:12;94640.75;;;8.32;100.00
43878;BME280;29815;48.184;11.268;2023-04-24T03:17:42;94635.63;;;8.31;100.00
43878;BME280;29815;48.184;11.268;2023-04-24T03:20:11;94627.88;;;8.29;100.00
43878;BME280;29815;48.184;11.268;2023-04-24T03:22:42;94633.50;;;8.28;100.00
43878;BME280;29815;48.184;11.268;2023-04-24T03:25:12;94634.56;;;8.32;100.00
43878;BME280;29815;48.184;11.268;2023-04-24T03:27:42;94631.88;;;8.32;100.00
43878;BME280;29815;48.184;11.268;2023-04-24T03:30:23;94627.34;;;8.27;100.00
43878;BME280;29815;48.184;11.268;2023-04-24T03:32:58;94627.09;;;8.24;100.00
43878;BME280;29815;48.184;11.268;2023-04-24T03:35:30;94630.03;;;8.27;100.00
43878;BME280;29815;48.184;11.268;2023-04-24T03:38:04;94628.97;;;8.23;100.00
43878;BME280;29815;48.184;11.268;2023-04-24T03:40:44;94629.81;;;8.19;100.00
43878;BME280;29815;48.184;11.268;2023-04-24T03:43:32;94630.09;;;8.17;100.00
43878;BME280;29815;48.184;11.268;2023-04-24T03:46:03;94626.38;;;8.13;100.00
43878;BME280;29815;48.184;11.268;2023-04-24T03:48:37;94636.25;;;8.18;100.00
43878;BME280;29815;48.184;11.268;2023-04-24T03:51:08;94632.78;;;8.17;100.00
43878;BME280;29815;48.184;11.268;2023-04-24T03:53:42;94627.41;;;8.17;100.00
43878;BME280;29815;48.184;11.268;2023-04-24T03:56:15;94632.25;;;8.15;100.00
43878;BME280;29815;48.184;11.268;2023-04-24T03:58:44;94626.34;;;8.18;100.00
43878;BME280;29815;48.184;11.268;2023-04-24T04:01:14;94626.09;;;8.14;100.00
43878;BME280;29815;48.184;11.268;2023-04-24T04:03:52;94626.38;;;8.13;100.00
43878;BME280;29815;48.184;11.268;2023-04-24T04:06:25;94630.63;;;8.19;100.00
43878;BME280;29815;48.184;11.268;2023-04-24T04:08:57;94623.66;;;8.18;100.00
43878;BME280;29815;48.184;11.268;2023-04-24T04:11:27;94626.56;;;8.22;100.00
43878;BME280;29815;48.184;11.268;2023-04-24T04:13:57;94631.66;;;8.23;100.00
43878;BME280;29815;48.184;11.268;2023-04-24T04:16:26;94631.34;;;8.30;100.00
43878;BME280;29815;48.184;11.268;2023-04-24T04:19:02;94629.75;;;8.29;100.00
43878;BME280;29815;48.184;11.268;2023-04-24T04:21:32;94630.03;;;8.27;100.00
43878;BME280;29815;48.184;11.268;2023-04-24T04:24:20;94629.75;;;8.29;100.00
43878;BME280;29815;48.184;11.268;2023-04-24T04:26:51;94637.22;;;8.32;100.00
43878;BME280;29815;48.184;11.268;2023-04-24T04:29:38;94635.91;;;8.29;100.00
43878;BME280;29815;48.184;11.268;2023-04-24T04:32:11;94637.00;;;8.23;100.00
43878;BME280;29815;48.184;11.268;2023-04-24T04:34:40;94640.47;;;8.29;100.00
43878;BME280;29815;48.184;11.268;2023-04-24T04:37:12;94647.69;;;8.28;100.00
43878;BME280;29815;48.184;11.268;2023-04-24T04:39:52;94639.38;;;8.30;100.00
43878;BME280;29815;48.184;11.268;2023-04-24T04:42:25;94635.91;;;8.29;100.00
43878;BME280;29815;48.184;11.268;2023-04-24T04:44:56;94642.88;;;8.30;100.00
43878;BME280;29815;48.184;11.268;2023-04-24T04:47:36;94643.16;;;8.29;100.00
43878;BME280;29815;48.184;11.268;2023-04-24T04:50:06;94651.19;;;8.29;100.00
43878;BME280;29815;48.184;11.268;2023-04-24T04:52:36;94648.25;;;8.25;100.00
43878;BME280;29815;48.184;11.268;2023-04-24T04:55:19;94659.50;;;8.27;100.00
43878;BME280;29815;48.184;11.268;2023-04-24T04:58:07;94657.66;;;8.23;100.00
43878;BME280;29815;48.184;11.268;2023-04-24T05:00:37;94652.28;;;8.23;100.00
43878;BME280;29815;48.184;11.268;2023-04-24T05:03:16;94649.06;;;8.26;100.00
43878;BME280;29815;48.184;11.268;2023-04-24T05:05:53;94638.59;;;8.24;100.00
43878;BME280;29815;48.184;11.268;2023-04-24T05:08:27;94655.47;;;8.30;100.00
43878;BME280;29815;48.184;11.268;2023-04-24T05:10:58;94653.31;;;8.37;100.00
43878;BME280;29815;48.184;11.268;2023-04-24T05:13:29;94657.06;;;8.41;100.00
43878;BME280;29815;48.184;11.268;2023-04-24T05:16:27;94666.16;;;8.45;100.00
43878;BME280;29815;48.184;11.268;2023-04-24T05:18:57;94665.34;;;8.44;100.00
43878;BME280;29815;48.184;11.268;2023-04-24T05:21:31;94661.06;;;8.43;100.00
43878;BME280;29815;48.184;11.268;2023-04-24T05:24:01;94663.75;;;8.43;100.00
43878;BME280;29815;48.184;11.268;2023-04-24T05:26:52;94667.94;;;8.55;100.00
43878;BME280;29815;48.184;11.268;2023-04-24T05:29:26;94662.84;;;8.58;100.00
43878;BME280;29815;48.184;11.268;2023-04-24T05:31:55;94671.94;;;8.62;100.00
43878;BME280;29815;48.184;11.268;2023-04-24T05:34:26;94676.50;;;8.62;100.00
43878;BME280;29815;48.184;11.268;2023-04-24T05:36:57;94675.72;;;8.56;100.00
43878;BME280;29815;48.184;11.268;2023-04-24T05:39:27;94676.75;;;8.65;100.00
43878;BME280;29815;48.184;11.268;2023-04-24T05:41:57;94674.88;;;8.61;100.00
43878;BME280;29815;48.184;11.268;2023-04-24T05:44:27;94671.91;;;8.67;100.00
43878;BME280;29815;48.184;11.268;2023-04-24T05:46:57;94678.50;;;8.80;100.00
43878;BME280;29815;48.184;11.268;2023-04-24T05:49:27;94674.72;;;8.81;100.00
43878;BME280;29815;48.184;11.268;2023-04-24T05:51:57;94676.78;;;8.94;100.00
43878;BME280;29815;48.184;11.268;2023-04-24T05:54:27;94682.97;;;8.95;100.00
43878;BME280;29815;48.184;11.268;2023-04-24T05:56:58;94681.88;;;8.96;100.00
43878;BME280;29815;48.184;11.268;2023-04-24T05:59:40;94676.19;;;9.02;100.00
43878;BME280;29815;48.184;11.268;2023-04-24T06:02:11;94683.63;;;9.10;100.00
43878;BME280;29815;48.184;11.268;2023-04-24T06:04:40;94680.97;;;9.05;100.00
43878;BME280;29815;48.184;11.268;2023-04-24T06:07:11;94677.22;;;9.06;100.00
43878;BME280;29815;48.184;11.268;2023-04-24T06:09:43;94681.75;;;9.11;100.00
43878;BME280;29815;48.184;11.268;2023-04-24T06:12:14;94683.56;;;9.21;100.00
43878;BME280;29815;48.184;11.268;2023-04-24T06:15:01;94685.44;;;9.20;100.00
43878;BME280;29815;48.184;11.268;2023-04-24T06:18:03;94688.06;;;9.25;100.00
43878;BME280;29815;48.184;11.268;2023-04-24T06:20:33;94686.22;;;9.21;100.00
43878;BME280;29815;48.184;11.268;2023-04-24T06:23:03;94691.31;;;9.22;100.00
43878;BME280;29815;48.184;11.268;2023-04-24T06:25:34;94699.00;;;9.34;100.00
43878;BME280;29815;48.184;11.268;2023-04-24T06:28:06;94694.69;;;9.33;100.00
43878;BME280;29815;48.184;11.268;2023-04-24T06:30:36;94705.72;;;9.31;100.00
43878;BME280;29815;48.184;11.268;2023-04-24T06:33:05;94707.31;;;9.32;100.00
43878;BME280;29815;48.184;11.268;2023-04-24T06:35:47;94706.59;;;9.27;100.00
43878;BME280;29815;48.184;11.268;2023-04-24T06:38:17;94706.53;;;9.32;100.00
43878;BME280;29815;48.184;11.268;2023-04-24T06:40:46;94707.31;;;9.32;100.00
43878;BME280;29815;48.184;11.268;2023-04-24T06:43:17;94712.66;;;9.37;100.00
43878;BME280;29815;48.184;11.268;2023-04-24T06:45:47;94706.16;;;9.43;100.00
43878;BME280;29815;48.184;11.268;2023-04-24T06:48:16;94712.53;;;9.53;100.00
43878;BME280;29815;48.184;11.268;2023-04-24T06:50:46;94704.75;;;9.51;100.00
43878;BME280;29815;48.184;11.268;2023-04-24T06:53:15;94706.00;;;9.59;100.00
43878;BME280;29815;48.184;11.268;2023-04-24T06:55:45;94713.50;;;9.62;100.00
43878;BME280;29815;48.184;11.268;2023-04-24T06:58:16;94723.16;;;9.63;100.00
43878;BME280;29815;48.184;11.268;2023-04-24T07:00:46;94726.88;;;9.67;100.00
43878;BME280;29815;48.184;11.268;2023-04-24T07:03:15;94723.03;;;9.78;100.00
43878;BME280;29815;48.184;11.268;2023-04-24T07:05:45;94717.00;;;9.86;100.00
43878;BME280;29815;48.184;11.268;2023-04-24T07:08:15;94720.78;;;9.85;100.00
43878;BME280;29815;48.184;11.268;2023-04-24T07:10:46;94726.78;;;9.77;100.00
43878;BME280;29815;48.184;11.268;2023-04-24T07:13:17;94727.81;;;9.81;100.00
43878;BME280;29815;48.184;11.268;2023-04-24T07:15:46;94725.66;;;9.83;100.00
43878;BME280;29815;48.184;11.268;2023-04-24T07:18:18;94726.47;;;9.83;100.00
43878;BME280;29815;48.184;11.268;2023-04-24T07:20:47;94733.84;;;9.97;100.00
43878;BME280;29815;48.184;11.268;2023-04-24T07:23:18;94730.28;;;10.01;100.00
43878;BME280;29815;48.184;11.268;2023-04-24T07:25:48;94741.00;;;10.06;100.00
43878;BME280;29815;48.184;11.268;2023-04-24T07:28:19;94738.75;;;10.13;100.00
43878;BME280;29815;48.184;11.268;2023-04-24T07:30:49;94746.53;;;10.15;100.00
43878;BME280;29815;48.184;11.268;2023-04-24T07:33:18;94737.44;;;10.11;100.00
43878;BME280;29815;48.184;11.268;2023-04-24T07:35:48;94748.38;;;10.20;100.00
43878;BME280;29815;48.184;11.268;2023-04-24T07:38:17;94731.09;;;10.26;100.00
43878;BME280;29815;48.184;11.268;2023-04-24T07:40:49;94742.66;;;10.26;100.00
43878;BME280;29815;48.184;11.268;2023-04-24T07:43:20;94733.47;;;10.32;100.00
43878;BME280;29815;48.184;11.268;2023-04-24T07:45:50;94744.97;;;10.38;100.00
43878;BME280;29815;48.184;11.268;2023-04-24T07:48:19;94745.44;;;10.40;100.00
43878;BME280;29815;48.184;11.268;2023-04-24T07:50:50;94738.91;;;10.46;100.00
43878;BME280;29815;48.184;11.268;2023-04-24T07:53:19;94751.50;;;10.50;100.00
43878;BME280;29815;48.184;11.268;2023-04-24T07:55:49;94751.09;;;10.62;100.00
43878;BME280;29815;48.184;11.268;2023-04-24T07:58:20;94762.72;;;10.58;100.00
43878;BME280;29815;48.184;11.268;2023-04-24T08:00:49;94755.59;;;10.67;100.00
43878;BME280;29815;48.184;11.268;2023-04-24T08:03:19;94759.81;;;10.73;100.00
43878;BME280;29815;48.184;11.268;2023-04-24T08:05:49;94760.66;;;10.49;100.00
43878;BME280;29815;48.184;11.268;2023-04-24T08:08:22;94767.13;;;10.48;100.00
43878;BME280;29815;48.184;11.268;2023-04-24T08:10:52;94779.84;;;10.43;100.00
43878;BME280;29815;48.184;11.268;2023-04-24T08:13:22;94792.09;;;10.30;100.00
43878;BME280;29815;48.184;11.268;2023-04-24T08:15:52;94781.28;;;10.11;100.00
43878;BME280;29815;48.184;11.268;2023-04-24T08:18:22;94794.09;;;9.91;100.00
43878;BME280;29815;48.184;11.268;2023-04-24T08:20:52;94798.31;;;9.73;100.00
43878;BME280;29815;48.184;11.268;2023-04-24T08:23:21;94795.28;;;9.79;100.00
43878;BME280;29815;48.184;11.268;2023-04-24T08:25:51;94796.81;;;9.85;100.00
43878;BME280;29815;48.184;11.268;2023-04-24T08:28:21;94807.81;;;9.89;100.00
43878;BME280;29815;48.184;11.268;2023-04-24T08:30:51;94806.66;;;10.00;100.00
43878;BME280;29815;48.184;11.268;2023-04-24T08:33:23;94803.59;;;10.12;100.00
43878;BME280;29815;48.184;11.268;2023-04-24T08:35:53;94811.28;;;10.18;100.00
43878;BME280;29815;48.184;11.268;2023-04-24T08:38:22;94811.06;;;10.15;100.00
43878;BME280;29815;48.184;11.268;2023-04-24T08:40:53;94811.06;;;10.15;100.00
43878;BME280;29815;48.184;11.268;2023-04-24T08:43:24;94815.47;;;10.06;100.00
43878;BME280;29815;48.184;11.268;2023-04-24T08:45:56;94808.78;;;10.03;100.00
43878;BME280;29815;48.184;11.268;2023-04-24T08:48:28;94817.72;;;9.94;100.00
43878;BME280;29815;48.184;11.268;2023-04-24T08:50:59;94820.16;;;9.90;100.00
43878;BME280;29815;48.184;11.268;2023-04-24T08:53:30;94818.31;;;9.85;100.00
43878;BME280;29815;48.184;11.268;2023-04-24T08:56:02;94822.84;;;9.90;100.00
43878;BME280;29815;48.184;11.268;2023-04-24T08:58:34;94823.84;;;9.99;100.00
43878;BME280;29815;48.184;11.268;2023-04-24T09:01:05;94823.06;;;9.99;100.00
43878;BME280;29815;48.184;11.268;2023-04-24T09:03:35;94829.34;;;10.13;100.00
43878;BME280;29815;48.184;11.268;2023-04-24T09:06:06;94825.28;;;10.21;100.00
43878;BME280;29815;48.184;11.268;2023-04-24T09:08:39;94838.44;;;10.22;100.00
43878;BME280;29815;48.184;11.268;2023-04-24T09:11:10;94829.47;;;10.32;100.00
43878;BME280;29815;48.184;11.268;2023-04-24T09:13:43;94833.63;;;10.43;100.00
43878;BME280;29815;48.184;11.268;2023-04-24T09:16:13;94836.50;;;10.51;100.00
43878;BME280;29815;48.184;11.268;2023-04-24T09:18:43;94830.75;;;10.63;100.00
43878;BME280;29815;48.184;11.268;2023-04-24T09:21:13;94835.13;;;10.78;100.00
43878;BME280;29815;48.184;11.268;2023-04-24T09:23:43;94837.94;;;10.92;100.00
43878;BME280;29815;48.184;11.268;2023-04-24T09:26:12;94833.47;;;11.01;100.00
43878;BME280;29815;48.184;11.268;2023-04-24T09:28:44;94829.84;;;11.10;100.00
43878;BME280;29815;48.184;11.268;2023-04-24T09:31:18;94832.47;;;11.15;100.00
43878;BME280;29815;48.184;11.268;2023-04-24T09:33:54;94829.78;;;11.15;100.00
43878;BME280;29815;48.184;11.268;2023-04-24T09:36:30;94837.25;;;11.00;100.00
43878;BME280;29815;48.184;11.268;2023-04-24T09:39:02;94825.25;;;10.92;100.00
43878;BME280;29815;48.184;11.268;2023-04-24T09:41:33;94835.81;;;11.07;100.00
43878;BME280;29815;48.184;11.268;2023-04-24T09:44:15;94819.09;;;11.10;100.00
43878;BME280;29815;48.184;11.268;2023-04-24T09:46:49;94824.47;;;11.29;100.00
43878;BME280;29815;48.184;11.268;2023-04-24T09:49:23;94821.38;;;11.54;100.00
43878;BME280;29815;48.184;11.268;2023-04-24T09:52:03;94824.00;;;11.78;100.00
43878;BME280;29815;48.184;11.268;2023-04-24T09:54:34;94827.78;;;11.77;100.00
43878;BME280;29815;48.184;11.268;2023-04-24T09:57:05;94824.56;;;11.75;100.00
43878;BME280;29815;48.184;11.268;2023-04-24T09:59:42;94826.13;;;11.63;100.00
43878;BME280;29815;48.184;11.268;2023-04-24T10:02:18;94829.53;;;11.49;100.00
43878;BME280;29815;48.184;11.268;2023-04-24T10:04:55;94836.34;;;11.47;100.00
43878;BME280;29815;48.184;11.268;2023-04-24T10:07:26;94815.50;;;11.34;100.00
43878;BME280;29815;48.184;11.268;2023-04-24T10:09:56;94817.91;;;11.35;100.00
43878;BME280;29815;48.184;11.268;2023-04-24T10:12:26;94805.69;;;11.43;100.00
43878;BME280;29815;48.184;11.268;2023-04-24T10:14:58;94800.50;;;11.46;100.00
43878;BME280;29815;48.184;11.268;2023-04-24T10:17:29;94809.72;;;11.59;100.00
43878;BME280;29815;48.184;11.268;2023-04-24T10:20:00;94810.75;;;11.63;100.00
43878;BME280;29815;48.184;11.268;2023-04-24T10:22:31;94803.59;;;11.72;100.00
43878;BME280;29815;48.184;11.268;2023-04-24T10:25:05;94821.97;;;11.70;100.00
43878;BME280;29815;48.184;11.268;2023-04-24T10:27:36;94860.94;;;11.40;100.00
43878;BME280;29815;48.184;11.268;2023-04-24T10:30:12;94873.84;;;10.58;100.00
43878;BME280;29815;48.184;11.268;2023-04-24T10:32:42;94880.59;;;9.98;100.00
43878;BME280;29815;48.184;11.268;2023-04-24T10:35:14;94871.41;;;9.70;100.00
43878;BME280;29815;48.184;11.268;2023-04-24T10:37:48;94865.75;;;9.32;100.00
43878;BME280;29815;48.184;11.268;2023-04-24T10:40:26;94866.94;;;9.16;100.00
43878;BME280;29815;48.184;11.268;2023-04-24T10:42:57;94865.38;;;9.05;100.00
43878;BME280;29815;48.184;11.268;2023-04-24T10:45:28;94858.47;;;8.94;100.00
43878;BME280;29815;48.184;11.268;2023-04-24T10:47:59;94854.91;;;9.03;100.00
43878;BME280;29815;48.184;11.268;2023-04-24T10:50:44;94832.81;;;9.22;100.00
43878;BME280;29815;48.184;11.268;2023-04-24T10:53:17;94842.19;;;9.58;100.00
43878;BME280;29815;48.184;11.268;2023-04-24T10:55:49;94842.16;;;9.97;100.00
43878;BME280;29815;48.184;11.268;2023-04-24T10:58:22;94839.44;;;10.31;100.00
43878;BME280;29815;48.184;11.268;2023-04-24T11:00:59;94838.53;;;10.65;100.00
43878;BME280;29815;48.184;11.268;2023-04-24T11:03:31;94843.59;;;11.09;100.00
43878;BME280;29815;48.184;11.268;2023-04-24T11:06:04;94856.22;;;11.32;100.00
43878;BME280;29815;48.184;11.268;2023-04-24T11:08:38;94861.31;;;11.15;100.00
43878;BME280;29815;48.184;11.268;2023-04-24T11:11:11;94869.06;;;10.98;100.00
43878;BME280;29815;48.184;11.268;2023-04-24T11:14:08;94859.59;;;11.00;100.00
43878;BME280;29815;48.184;11.268;2023-04-24T11:16:45;94852.94;;;11.16;100.00
43878;BME280;29815;48.184;11.268;2023-04-24T11:19:23;94857.81;;;11.33;100.00
43878;BME280;29815;48.184;11.268;2023-04-24T11:21:58;94853.22;;;11.34;100.00
43878;BME280;29815;48.184;11.268;2023-04-24T11:24:32;94846.75;;;11.35;100.00
43878;BME280;29815;48.184;11.268;2023-04-24T11:27:17;94853.44;;;11.37;100.00
43878;BME280;29815;48.184;11.268;2023-04-24T11:29:58;94858.47;;;11.44;100.00
43878;BME280;29815;48.184;11.268;2023-04-24T11:32:35;94851.59;;;11.70;100.00
43878;BME280;29815;48.184;11.268;2023-04-24T11:35:08;94845.63;;;12.06;100.00
43878;BME280;29815;48.184;11.268;2023-04-24T11:37:43;94842.91;;;12.38;100.00
43878;BME280;29815;48.184;11.268;2023-04-24T11:40:25;94858.22;;;12.43;100.00
43878;BME280;29815;48.184;11.268;2023-04-24T11:43:01;94842.44;;;12.50;100.00
43878;BME280;29815;48.184;11.268;2023-04-24T11:46:09;94829.16;;;12.81;100.00
43878;BME280;29815;48.184;11.268;2023-04-24T11:48:45;94837.91;;;13.00;100.00
43878;BME280;29815;48.184;11.268;2023-04-24T11:51:27;94840.13;;;13.12;100.00
43878;BME280;29815;48.184;11.268;2023-04-24T11:54:15;94841.50;;;13.23;100.00
43878;BME280;29815;48.184;11.268;2023-04-24T11:56:45;94834.28;;;13.32;100.00
43878;BME280;29815;48.184;11.268;2023-04-24T11:59:15;94829.00;;;13.63;100.00
43878;BME280;29815;48.184;11.268;2023-04-24T12:01:45;94831.00;;;13.80;100.00
43878;BME280;29815;48.184;11.268;2023-04-24T12:04:17;94813.19;;;13.79;100.00
43878;BME280;29815;48.184;11.268;2023-04-24T12:07:00;94821.09;;;14.20;100.00
43878;BME280;29815;48.184;11.268;2023-04-24T12:09:41;94837.34;;;14.51;100.00
43878;BME280;29815;48.184;11.268;2023-04-24T12:12:15;94822.19;;;14.41;100.00
43878;BME280;29815;48.184;11.268;2023-04-24T12:14:48;94825.44;;;14.30;100.00
43878;BME280;29815;48.184;11.268;2023-04-24T12:17:24;94816.59;;;14.15;99.83
43878;BME280;29815;48.184;11.268;2023-04-24T12:20:03;94805.16;;;14.41;96.91
43878;BME280;29815;48.184;11.268;2023-04-24T12:22:49;94809.81;;;14.57;100.00
43878;BME280;29815;48.184;11.268;2023-04-24T12:25:21;94810.34;;;14.37;98.84
43878;BME280;29815;48.184;11.268;2023-04-24T12:27:57;94820.38;;;14.37;88.64
43878;BME280;29815;48.184;11.268;2023-04-24T12:30:42;94822.19;;;14.41;100.00
43878;BME280;29815;48.184;11.268;2023-04-24T12:33:16;94820.31;;;14.28;84.74
43878;BME280;29815;48.184;11.268;2023-04-24T12:35:51;94819.00;;;14.17;84.33
43878;BME280;29815;48.184;11.268;2023-04-24T12:38:23;94820.19;;;14.02;83.64
43878;BME280;29815;48.184;11.268;2023-04-24T12:41:03;94822.94;;;14.11;84.05
43878;BME280;29815;48.184;11.268;2023-04-24T12:43:34;94830.16;;;13.93;92.02
43878;BME280;29815;48.184;11.268;2023-04-24T12:46:04;94844.06;;;13.42;92.34
43878;BME280;29815;48.184;11.268;2023-04-24T12:48:34;94854.53;;;12.66;100.00
43878;BME280;29815;48.184;11.268;2023-04-24T12:51:05;94851.34;;;12.50;100.00
43878;BME280;29815;48.184;11.268;2023-04-24T12:53:35;94856.91;;;12.27;100.00
43878;BME280;29815;48.184;11.268;2023-04-24T12:56:05;94844.41;;;12.31;100.00
43878;BME280;29815;48.184;11.268;2023-04-24T12:58:34;94849.72;;;12.63;100.00
43878;BME280;29815;48.184;11.268;2023-04-24T13:01:04;94836.91;;;13.10;100.00
43878;BME280;29815;48.184;11.268;2023-04-24T13:03:34;94841.53;;;13.59;100.00
43878;BME280;29815;48.184;11.268;2023-04-24T13:06:05;94833.53;;;13.99;100.00
43878;BME280;29815;48.184;11.268;2023-04-24T13:08:34;94832.72;;;14.43;94.22
43878;BME280;29815;48.184;11.268;2023-04-24T13:11:04;94817.13;;;14.48;80.83
43878;BME280;29815;48.184;11.268;2023-04-24T13:13:34;94824.28;;;14.22;76.28
43878;BME280;29815;48.184;11.268;2023-04-24T13:16:04;94825.31;;;14.35;76.92